sensor_id;sensor_type;location;lat;lon;timestamp;temperature;humidity
75738;DHT22;64356;45.638;13.764;2023-02-26T00:00:12;18.40;58.20
75738;DHT22;64356;45.638;13.764;2023-02-26T00:02:43;18.40;58.20
75738;DHT22;64356;45.638;13.764;2023-02-26T00:05:14;18.40;58.20
75738;DHT22;64356;45.638;13.764;2023-02-26T00:07:40;18.40;58.10
75738;DHT22;64356;45.638;13.764;2023-02-26T00:10:08;18.40;58.10
75738;DHT22;64356;45.638;13.764;2023-02-26T00:12:36;18.40;58.10
75738;DHT22;64356;45.638;13.764;2023-02-26T00:15:03;18.40;58.10
75738;DHT22;64356;45.638;13.764;2023-02-26T00:20:04;18.40;58.10
75738;DHT22;64356;45.638;13.764;2023-02-26T00:22:31;18.40;58.10
75738;DHT22;64356;45.638;13.764;2023-02-26T00:24:56;18.40;58.00
75738;DHT22;64356;45.638;13.764;2023-02-26T00:27:22;18.40;58.00
75738;DHT22;64356;45.638;13.764;2023-02-26T00:29:48;18.40;58.00
75738;DHT22;64356;45.638;13.764;2023-02-26T00:32:14;18.40;58.00
75738;DHT22;64356;45.638;13.764;2023-02-26T00:34:46;18.40;57.90
75738;DHT22;64356;45.638;13.764;2023-02-26T00:40:22;18.40;57.90
75738;DHT22;64356;45.638;13.764;2023-02-26T00:42:51;18.40;57.90
75738;DHT22;64356;45.638;13.764;2023-02-26T00:45:18;18.40;57.80
75738;DHT22;64356;45.638;13.764;2023-02-26T00:47:51;18.30;57.70
75738;DHT22;64356;45.638;13.764;2023-02-26T00:50:25;18.30;57.60
75738;DHT22;64356;45.638;13.764;2023-02-26T00:55:22;18.30;57.60
75738;DHT22;64356;45.638;13.764;2023-02-26T00:57:48;18.30;57.50
75738;DHT22;64356;45.638;13.764;2023-02-26T01:00:14;18.30;57.50
75738;DHT22;64356;45.638;13.764;2023-02-26T01:02:41;18.30;57.50
75738;DHT22;64356;45.638;13.764;2023-02-26T01:05:07;18.30;57.60
75738;DHT22;64356;45.638;13.764;2023-02-26T01:10:25;18.30;57.50
75738;DHT22;64356;45.638;13.764;2023-02-26T01:12:51;18.30;57.50
75738;DHT22;64356;45.638;13.764;2023-02-26T01:15:17;18.30;57.50
75738;DHT22;64356;45.638;13.764;2023-02-26T01:17:59;18.30;57.50
75738;DHT22;64356;45.638;13.764;2023-02-26T01:20:31;18.30;57.40
75738;DHT22;64356;45.638;13.764;2023-02-26T01:23:03;18.30;57.90
75738;DHT22;64356;45.638;13.764;2023-02-26T01:25:40;18.30;57.30
75738;DHT22;64356;45.638;13.764;2023-02-26T01:28:07;18.30;57.20
75738;DHT22;64356;45.638;13.764;2023-02-26T01:30:34;18.30;57.30
75738;DHT22;64356;45.638;13.764;2023-02-26T01:33:28;18.30;57.20
75738;DHT22;64356;45.638;13.764;2023-02-26T01:36:02;18.30;57.10
75738;DHT22;64356;45.638;13.764;2023-02-26T01:41:35;18.20;57.00
75738;DHT22;64356;45.638;13.764;2023-02-26T01:44:10;18.30;57.00
75738;DHT22;64356;45.638;13.764;2023-02-26T01:49:44;18.20;57.00
75738;DHT22;64356;45.638;13.764;2023-02-26T01:55:18;18.20;56.90
75738;DHT22;64356;45.638;13.764;2023-02-26T01:57:44;18.20;56.90
75738;DHT22;64356;45.638;13.764;2023-02-26T02:00:11;18.20;56.90
75738;DHT22;64356;45.638;13.764;2023-02-26T02:02:36;18.20;56.90
75738;DHT22;64356;45.638;13.764;2023-02-26T02:05:46;18.20;56.80
75738;DHT22;64356;45.638;13.764;2023-02-26T02:08:10;18.20;56.80
75738;DHT22;64356;45.638;13.764;2023-02-26T02:10:40;18.20;56.80
75738;DHT22;64356;45.638;13.764;2023-02-26T02:26:57;18.20;56.60
75738;DHT22;64356;45.638;13.764;2023-02-26T02:34:45;18.10;56.40
75738;DHT22;64356;45.638;13.764;2023-02-26T02:42:37;18.20;56.50
75738;DHT22;64356;45.638;13.764;2023-02-26T02:45:09;18.10;56.40
75738;DHT22;64356;45.638;13.764;2023-02-26T02:47:40;18.10;56.40
75738;DHT22;64356;45.638;13.764;2023-02-26T02:50:21;18.10;56.40
75738;DHT22;64356;45.638;13.764;2023-02-26T02:52:56;18.10;56.40
75738;DHT22;64356;45.638;13.764;2023-02-26T02:55:35;18.10;56.20
75738;DHT22;64356;45.638;13.764;2023-02-26T02:58:12;18.10;56.10
75738;DHT22;64356;45.638;13.764;2023-02-26T03:00:42;18.10;56.10
75738;DHT22;64356;45.638;13.764;2023-02-26T03:05:45;18.10;56.10
75738;DHT22;64356;45.638;13.764;2023-02-26T03:08:17;18.10;56.10
75738;DHT22;64356;45.638;13.764;2023-02-26T03:10:44;18.10;56.10
75738;DHT22;64356;45.638;13.764;2023-02-26T03:13:18;18.10;56.00
75738;DHT22;64356;45.638;13.764;2023-02-26T03:16:09;18.10;56.00
75738;DHT22;64356;45.638;13.764;2023-02-26T03:18:44;18.10;56.40
75738;DHT22;64356;45.638;13.764;2023-02-26T03:26:30;18.10;56.00
75738;DHT22;64356;45.638;13.764;2023-02-26T03:29:15;18.10;56.00
75738;DHT22;64356;45.638;13.764;2023-02-26T03:32:29;18.10;56.00
75738;DHT22;64356;45.638;13.764;2023-02-26T03:37:36;18.10;55.70
75738;DHT22;64356;45.638;13.764;2023-02-26T03:40:53;18.10;55.70
75738;DHT22;64356;45.638;13.764;2023-02-26T03:45:30;18.10;55.80
75738;DHT22;64356;45.638;13.764;2023-02-26T03:47:59;18.10;55.70
75738;DHT22;64356;45.638;13.764;2023-02-26T03:50:32;18.10;55.70
75738;DHT22;64356;45.638;13.764;2023-02-26T03:53:01;18.10;55.80
75738;DHT22;64356;45.638;13.764;2023-02-26T03:56:01;18.10;55.80
75738;DHT22;64356;45.638;13.764;2023-02-26T03:58:29;18.00;55.80
75738;DHT22;64356;45.638;13.764;2023-02-26T04:01:06;18.00;55.70
75738;DHT22;64356;45.638;13.764;2023-02-26T04:03:49;18.10;55.80
75738;DHT22;64356;45.638;13.764;2023-02-26T04:06:18;18.00;55.70
75738;DHT22;64356;45.638;13.764;2023-02-26T04:08:45;18.00;55.80
75738;DHT22;64356;45.638;13.764;2023-02-26T04:11:14;18.00;55.80
75738;DHT22;64356;45.638;13.764;2023-02-26T04:13:44;18.00;55.70
75738;DHT22;64356;45.638;13.764;2023-02-26T04:16:11;18.00;55.60
75738;DHT22;64356;45.638;13.764;2023-02-26T04:18:37;18.00;55.70
75738;DHT22;64356;45.638;13.764;2023-02-26T04:21:03;18.00;55.70
75738;DHT22;64356;45.638;13.764;2023-02-26T04:23:29;18.00;55.80
75738;DHT22;64356;45.638;13.764;2023-02-26T04:25:55;18.00;55.70
75738;DHT22;64356;45.638;13.764;2023-02-26T04:28:20;18.00;55.70
75738;DHT22;64356;45.638;13.764;2023-02-26T04:30:46;18.00;55.70
75738;DHT22;64356;45.638;13.764;2023-02-26T04:33:13;18.00;55.60
75738;DHT22;64356;45.638;13.764;2023-02-26T04:35:40;18.00;55.60
75738;DHT22;64356;45.638;13.764;2023-02-26T04:38:06;18.00;55.70
75738;DHT22;64356;45.638;13.764;2023-02-26T04:40:32;18.00;55.70
75738;DHT22;64356;45.638;13.764;2023-02-26T04:42:57;18.00;55.60
75738;DHT22;64356;45.638;13.764;2023-02-26T04:45:23;18.00;55.60
75738;DHT22;64356;45.638;13.764;2023-02-26T04:47:49;18.00;55.60
75738;DHT22;64356;45.638;13.764;2023-02-26T04:50:15;18.00;55.60
75738;DHT22;64356;45.638;13.764;2023-02-26T04:52:40;18.00;55.70
75738;DHT22;64356;45.638;13.764;2023-02-26T04:55:06;18.00;55.60
75738;DHT22;64356;45.638;13.764;2023-02-26T04:57:32;18.00;55.70
75738;DHT22;64356;45.638;13.764;2023-02-26T04:59:58;18.00;55.60
75738;DHT22;64356;45.638;13.764;2023-02-26T05:02:24;18.00;55.50
75738;DHT22;64356;45.638;13.764;2023-02-26T05:04:50;18.00;55.50
75738;DHT22;64356;45.638;13.764;2023-02-26T05:07:15;18.00;55.50
75738;DHT22;64356;45.638;13.764;2023-02-26T05:09:41;18.00;55.40
75738;DHT22;64356;45.638;13.764;2023-02-26T05:12:07;18.00;55.40
75738;DHT22;64356;45.638;13.764;2023-02-26T05:14:32;18.00;55.30
75738;DHT22;64356;45.638;13.764;2023-02-26T05:16:58;18.00;55.30
75738;DHT22;64356;45.638;13.764;2023-02-26T05:19:24;18.00;55.20
75738;DHT22;64356;45.638;13.764;2023-02-26T05:21:50;17.90;55.20
75738;DHT22;64356;45.638;13.764;2023-02-26T05:24:16;18.00;55.20
75738;DHT22;64356;45.638;13.764;2023-02-26T05:26:41;17.90;55.10
75738;DHT22;64356;45.638;13.764;2023-02-26T05:29:07;18.00;55.10
75738;DHT22;64356;45.638;13.764;2023-02-26T05:31:33;17.90;55.10
75738;DHT22;64356;45.638;13.764;2023-02-26T05:33:59;17.90;55.00
75738;DHT22;64356;45.638;13.764;2023-02-26T05:36:24;17.90;55.00
75738;DHT22;64356;45.638;13.764;2023-02-26T05:38:50;17.90;55.00
75738;DHT22;64356;45.638;13.764;2023-02-26T05:41:17;17.90;55.00
75738;DHT22;64356;45.638;13.764;2023-02-26T05:43:43;17.90;55.00
75738;DHT22;64356;45.638;13.764;2023-02-26T05:46:09;17.90;54.90
75738;DHT22;64356;45.638;13.764;2023-02-26T05:48:34;17.90;54.80
75738;DHT22;64356;45.638;13.764;2023-02-26T05:51:00;17.90;55.20
75738;DHT22;64356;45.638;13.764;2023-02-26T05:53:27;17.90;54.70
75738;DHT22;64356;45.638;13.764;2023-02-26T05:55:53;17.90;54.70
75738;DHT22;64356;45.638;13.764;2023-02-26T05:58:18;17.90;54.70
75738;DHT22;64356;45.638;13.764;2023-02-26T06:00:44;17.90;54.70
75738;DHT22;64356;45.638;13.764;2023-02-26T06:03:10;17.90;54.60
75738;DHT22;64356;45.638;13.764;2023-02-26T06:05:36;17.90;54.50
75738;DHT22;64356;45.638;13.764;2023-02-26T06:08:02;17.90;54.30
75738;DHT22;64356;45.638;13.764;2023-02-26T06:10:28;17.90;54.30
75738;DHT22;64356;45.638;13.764;2023-02-26T06:12:54;17.90;54.30
75738;DHT22;64356;45.638;13.764;2023-02-26T06:15:19;17.90;54.40
75738;DHT22;64356;45.638;13.764;2023-02-26T06:17:45;17.90;54.30
75738;DHT22;64356;45.638;13.764;2023-02-26T06:20:11;17.90;54.30
75738;DHT22;64356;45.638;13.764;2023-02-26T06:22:37;17.80;54.20
75738;DHT22;64356;45.638;13.764;2023-02-26T06:25:03;17.90;54.30
75738;DHT22;64356;45.638;13.764;2023-02-26T06:27:29;17.80;54.20
75738;DHT22;64356;45.638;13.764;2023-02-26T06:29:55;17.90;54.30
75738;DHT22;64356;45.638;13.764;2023-02-26T06:32:21;17.90;54.30
75738;DHT22;64356;45.638;13.764;2023-02-26T06:34:47;17.90;54.30
75738;DHT22;64356;45.638;13.764;2023-02-26T06:37:12;17.80;54.20
75738;DHT22;64356;45.638;13.764;2023-02-26T06:39:38;17.90;54.20
75738;DHT22;64356;45.638;13.764;2023-02-26T06:42:04;17.90;54.20
75738;DHT22;64356;45.638;13.764;2023-02-26T06:44:30;17.90;54.20
75738;DHT22;64356;45.638;13.764;2023-02-26T06:46:55;17.80;54.10
75738;DHT22;64356;45.638;13.764;2023-02-26T06:49:21;17.90;54.20
75738;DHT22;64356;45.638;13.764;2023-02-26T06:51:47;17.80;54.10
75738;DHT22;64356;45.638;13.764;2023-02-26T06:54:12;17.90;54.10
75738;DHT22;64356;45.638;13.764;2023-02-26T06:56:38;17.80;53.90
75738;DHT22;64356;45.638;13.764;2023-02-26T06:59:04;17.90;53.80
75738;DHT22;64356;45.638;13.764;2023-02-26T07:01:29;17.90;53.90
75738;DHT22;64356;45.638;13.764;2023-02-26T07:03:56;17.80;53.90
75738;DHT22;64356;45.638;13.764;2023-02-26T07:06:22;17.80;54.00
75738;DHT22;64356;45.638;13.764;2023-02-26T07:08:48;17.80;53.90
75738;DHT22;64356;45.638;13.764;2023-02-26T07:11:14;17.80;54.00
75738;DHT22;64356;45.638;13.764;2023-02-26T07:13:40;17.80;53.90
75738;DHT22;64356;45.638;13.764;2023-02-26T07:16:06;17.80;53.90
75738;DHT22;64356;45.638;13.764;2023-02-26T07:18:35;17.80;53.90
75738;DHT22;64356;45.638;13.764;2023-02-26T07:21:02;17.90;53.90
75738;DHT22;64356;45.638;13.764;2023-02-26T07:23:28;17.80;53.80
75738;DHT22;64356;45.638;13.764;2023-02-26T07:25:54;17.80;53.70
75738;DHT22;64356;45.638;13.764;2023-02-26T07:28:21;17.80;53.80
75738;DHT22;64356;45.638;13.764;2023-02-26T07:30:47;17.80;53.70
75738;DHT22;64356;45.638;13.764;2023-02-26T07:33:12;17.80;53.70
75738;DHT22;64356;45.638;13.764;2023-02-26T07:35:38;17.80;53.80
75738;DHT22;64356;45.638;13.764;2023-02-26T07:38:04;17.80;53.70
75738;DHT22;64356;45.638;13.764;2023-02-26T07:40:30;17.80;53.70
75738;DHT22;64356;45.638;13.764;2023-02-26T07:42:56;17.90;53.60
75738;DHT22;64356;45.638;13.764;2023-02-26T07:45:22;17.80;53.40
75738;DHT22;64356;45.638;13.764;2023-02-26T07:47:49;17.80;53.40
75738;DHT22;64356;45.638;13.764;2023-02-26T07:50:15;17.80;53.30
75738;DHT22;64356;45.638;13.764;2023-02-26T07:52:41;17.80;53.20
75738;DHT22;64356;45.638;13.764;2023-02-26T07:55:07;17.80;53.20
75738;DHT22;64356;45.638;13.764;2023-02-26T07:57:33;17.80;53.20
75738;DHT22;64356;45.638;13.764;2023-02-26T07:59:59;17.80;53.30
75738;DHT22;64356;45.638;13.764;2023-02-26T08:02:25;17.80;53.20
75738;DHT22;64356;45.638;13.764;2023-02-26T08:04:50;17.80;53.20
75738;DHT22;64356;45.638;13.764;2023-02-26T08:07:17;17.80;53.10
75738;DHT22;64356;45.638;13.764;2023-02-26T08:09:42;17.80;53.20
75738;DHT22;64356;45.638;13.764;2023-02-26T08:12:08;17.80;53.20
75738;DHT22;64356;45.638;13.764;2023-02-26T08:14:34;17.80;53.00
75738;DHT22;64356;45.638;13.764;2023-02-26T08:17:00;17.80;52.90
75738;DHT22;64356;45.638;13.764;2023-02-26T08:19:25;17.80;53.00
75738;DHT22;64356;45.638;13.764;2023-02-26T08:21:51;17.80;52.90
75738;DHT22;64356;45.638;13.764;2023-02-26T08:24:20;17.80;52.90
75738;DHT22;64356;45.638;13.764;2023-02-26T08:26:46;17.80;52.90
75738;DHT22;64356;45.638;13.764;2023-02-26T08:29:12;17.80;52.80
75738;DHT22;64356;45.638;13.764;2023-02-26T08:31:37;17.80;52.80
75738;DHT22;64356;45.638;13.764;2023-02-26T08:34:03;17.80;52.70
75738;DHT22;64356;45.638;13.764;2023-02-26T08:36:30;17.80;52.80
75738;DHT22;64356;45.638;13.764;2023-02-26T08:38:56;17.80;52.60
75738;DHT22;64356;45.638;13.764;2023-02-26T08:41:22;17.80;52.60
75738;DHT22;64356;45.638;13.764;2023-02-26T08:43:48;17.80;52.60
75738;DHT22;64356;45.638;13.764;2023-02-26T08:46:13;17.80;52.70
75738;DHT22;64356;45.638;13.764;2023-02-26T08:48:39;17.80;53.10
75738;DHT22;64356;45.638;13.764;2023-02-26T08:51:05;17.80;52.70
75738;DHT22;64356;45.638;13.764;2023-02-26T08:53:31;17.70;52.60
75738;DHT22;64356;45.638;13.764;2023-02-26T08:55:56;17.80;52.70
75738;DHT22;64356;45.638;13.764;2023-02-26T08:58:22;17.80;52.60
75738;DHT22;64356;45.638;13.764;2023-02-26T09:00:48;17.80;52.80
75738;DHT22;64356;45.638;13.764;2023-02-26T09:03:14;17.70;52.60
75738;DHT22;64356;45.638;13.764;2023-02-26T09:05:39;17.70;52.60
75738;DHT22;64356;45.638;13.764;2023-02-26T09:08:06;17.80;52.80
75738;DHT22;64356;45.638;13.764;2023-02-26T09:10:33;17.70;52.60
75738;DHT22;64356;45.638;13.764;2023-02-26T09:12:58;17.70;52.50
75738;DHT22;64356;45.638;13.764;2023-02-26T09:15:24;17.80;52.60
75738;DHT22;64356;45.638;13.764;2023-02-26T09:17:50;17.80;52.40
75738;DHT22;64356;45.638;13.764;2023-02-26T09:20:16;17.80;52.60
75738;DHT22;64356;45.638;13.764;2023-02-26T09:22:42;17.80;52.50
75738;DHT22;64356;45.638;13.764;2023-02-26T09:25:09;17.70;52.30
75738;DHT22;64356;45.638;13.764;2023-02-26T09:27:35;17.70;52.20
75738;DHT22;64356;45.638;13.764;2023-02-26T09:30:02;17.70;52.30
75738;DHT22;64356;45.638;13.764;2023-02-26T09:32:27;17.80;52.40
75738;DHT22;64356;45.638;13.764;2023-02-26T09:34:53;17.80;52.40
75738;DHT22;64356;45.638;13.764;2023-02-26T09:37:19;17.80;52.30
75738;DHT22;64356;45.638;13.764;2023-02-26T09:39:45;17.80;52.30
75738;DHT22;64356;45.638;13.764;2023-02-26T09:45:06;17.80;52.30
75738;DHT22;64356;45.638;13.764;2023-02-26T09:47:42;17.80;52.20
75738;DHT22;64356;45.638;13.764;2023-02-26T09:50:19;17.80;52.30
75738;DHT22;64356;45.638;13.764;2023-02-26T09:53:11;17.80;52.20
75738;DHT22;64356;45.638;13.764;2023-02-26T09:55:42;17.80;52.30
75738;DHT22;64356;45.638;13.764;2023-02-26T09:58:21;17.80;53.70
75738;DHT22;64356;45.638;13.764;2023-02-26T10:00:58;17.90;54.20
75738;DHT22;64356;45.638;13.764;2023-02-26T10:06:24;17.90;54.50
75738;DHT22;64356;45.638;13.764;2023-02-26T10:14:09;17.80;53.00
75738;DHT22;64356;45.638;13.764;2023-02-26T10:16:39;17.80;53.00
75738;DHT22;64356;45.638;13.764;2023-02-26T10:19:15;17.80;53.80
75738;DHT22;64356;45.638;13.764;2023-02-26T10:21:44;17.90;54.50
75738;DHT22;64356;45.638;13.764;2023-02-26T10:24:18;17.90;54.10
75738;DHT22;64356;45.638;13.764;2023-02-26T10:26:57;17.90;53.60
75738;DHT22;64356;45.638;13.764;2023-02-26T10:34:44;17.80;54.10
75738;DHT22;64356;45.638;13.764;2023-02-26T10:43:21;17.90;54.50
75738;DHT22;64356;45.638;13.764;2023-02-26T10:51:22;17.90;54.60
75738;DHT22;64356;45.638;13.764;2023-02-26T10:53:53;17.90;54.40
75738;DHT22;64356;45.638;13.764;2023-02-26T10:56:28;17.90;54.00
75738;DHT22;64356;45.638;13.764;2023-02-26T10:58:55;17.80;53.90
75738;DHT22;64356;45.638;13.764;2023-02-26T11:01:23;17.80;54.00
75738;DHT22;64356;45.638;13.764;2023-02-26T11:03:54;17.80;54.10
75738;DHT22;64356;45.638;13.764;2023-02-26T11:07:13;17.80;54.30
75738;DHT22;64356;45.638;13.764;2023-02-26T11:09:42;17.80;55.00
75738;DHT22;64356;45.638;13.764;2023-02-26T11:12:13;17.80;55.10
75738;DHT22;64356;45.638;13.764;2023-02-26T11:14:41;17.80;55.70
75738;DHT22;64356;45.638;13.764;2023-02-26T11:17:16;17.90;55.90
75738;DHT22;64356;45.638;13.764;2023-02-26T11:19:59;17.90;55.70
75738;DHT22;64356;45.638;13.764;2023-02-26T11:22:28;17.80;55.60
75738;DHT22;64356;45.638;13.764;2023-02-26T11:24:57;17.80;55.70
75738;DHT22;64356;45.638;13.764;2023-02-26T11:27:35;17.90;55.90
75738;DHT22;64356;45.638;13.764;2023-02-26T11:30:16;17.80;56.20
75738;DHT22;64356;45.638;13.764;2023-02-26T11:32:44;17.80;56.10
75738;DHT22;64356;45.638;13.764;2023-02-26T11:35:14;17.90;56.60
75738;DHT22;64356;45.638;13.764;2023-02-26T11:37:46;17.80;56.60
75738;DHT22;64356;45.638;13.764;2023-02-26T11:40:36;17.90;56.80
75738;DHT22;64356;45.638;13.764;2023-02-26T11:43:06;17.80;56.90
75738;DHT22;64356;45.638;13.764;2023-02-26T11:45:35;17.80;57.10
75738;DHT22;64356;45.638;13.764;2023-02-26T11:48:06;17.80;57.10
75738;DHT22;64356;45.638;13.764;2023-02-26T11:50:39;17.80;57.30
75738;DHT22;64356;45.638;13.764;2023-02-26T11:53:16;17.80;57.30
75738;DHT22;64356;45.638;13.764;2023-02-26T11:55:46;17.80;57.10
75738;DHT22;64356;45.638;13.764;2023-02-26T11:58:22;17.80;57.30
75738;DHT22;64356;45.638;13.764;2023-02-26T12:00:51;17.80;57.40
75738;DHT22;64356;45.638;13.764;2023-02-26T12:03:24;17.90;57.20
75738;DHT22;64356;45.638;13.764;2023-02-26T12:05:51;17.80;57.60
75738;DHT22;64356;45.638;13.764;2023-02-26T12:08:30;17.80;56.10
75738;DHT22;64356;45.638;13.764;2023-02-26T12:14:07;17.80;56.80
75738;DHT22;64356;45.638;13.764;2023-02-26T12:16:48;17.80;56.50
75738;DHT22;64356;45.638;13.764;2023-02-26T12:19:33;17.70;57.00
75738;DHT22;64356;45.638;13.764;2023-02-26T12:22:05;17.70;56.60
75738;DHT22;64356;45.638;13.764;2023-02-26T12:27:15;17.70;56.50
75738;DHT22;64356;45.638;13.764;2023-02-26T12:29:53;17.70;56.40
75738;DHT22;64356;45.638;13.764;2023-02-26T12:33:08;17.60;56.10
75738;DHT22;64356;45.638;13.764;2023-02-26T12:41:34;17.70;56.10
75738;DHT22;64356;45.638;13.764;2023-02-26T12:44:22;17.60;56.00
75738;DHT22;64356;45.638;13.764;2023-02-26T12:49:44;17.80;59.50
75738;DHT22;64356;45.638;13.764;2023-02-26T13:05:50;18.10;58.00
75738;DHT22;64356;45.638;13.764;2023-02-26T13:08:40;18.20;57.80
75738;DHT22;64356;45.638;13.764;2023-02-26T13:14:31;18.20;57.50
75738;DHT22;64356;45.638;13.764;2023-02-26T13:19:44;18.30;56.60
75738;DHT22;64356;45.638;13.764;2023-02-26T13:22:29;18.40;56.20
75738;DHT22;64356;45.638;13.764;2023-02-26T13:25:03;18.40;56.10
75738;DHT22;64356;45.638;13.764;2023-02-26T13:27:33;18.40;55.80
75738;DHT22;64356;45.638;13.764;2023-02-26T13:32:41;18.50;55.20
75738;DHT22;64356;45.638;13.764;2023-02-26T13:37:49;18.60;54.70
75738;DHT22;64356;45.638;13.764;2023-02-26T13:42:59;18.60;54.20
75738;DHT22;64356;45.638;13.764;2023-02-26T13:51:35;18.50;54.20
75738;DHT22;64356;45.638;13.764;2023-02-26T13:54:06;18.50;54.30
75738;DHT22;64356;45.638;13.764;2023-02-26T14:01:32;18.40;54.60
75738;DHT22;64356;45.638;13.764;2023-02-26T14:06:54;18.30;54.60
75738;DHT22;64356;45.638;13.764;2023-02-26T14:27:41;18.10;54.90
75738;DHT22;64356;45.638;13.764;2023-02-26T14:32:48;18.00;54.90
75738;DHT22;64356;45.638;13.764;2023-02-26T14:35:19;18.00;54.70
75738;DHT22;64356;45.638;13.764;2023-02-26T14:38:17;18.00;54.30
75738;DHT22;64356;45.638;13.764;2023-02-26T14:40:49;18.00;54.50
75738;DHT22;64356;45.638;13.764;2023-02-26T14:43:33;17.90;54.70
75738;DHT22;64356;45.638;13.764;2023-02-26T14:46:01;17.90;54.90
75738;DHT22;64356;45.638;13.764;2023-02-26T14:48:28;17.90;55.00
75738;DHT22;64356;45.638;13.764;2023-02-26T15:02:31;17.80;53.80
75738;DHT22;64356;45.638;13.764;2023-02-26T15:05:13;17.80;54.40
75738;DHT22;64356;45.638;13.764;2023-02-26T15:08:17;17.90;54.50
75738;DHT22;64356;45.638;13.764;2023-02-26T15:19:39;18.00;54.20
75738;DHT22;64356;45.638;13.764;2023-02-26T15:24:37;18.10;53.80
75738;DHT22;64356;45.638;13.764;2023-02-26T15:27:06;18.20;53.70
75738;DHT22;64356;45.638;13.764;2023-02-26T15:29:36;18.20;54.00
75738;DHT22;64356;45.638;13.764;2023-02-26T15:32:21;18.20;53.70
75738;DHT22;64356;45.638;13.764;2023-02-26T15:35:06;18.30;53.30
75738;DHT22;64356;45.638;13.764;2023-02-26T15:37:35;18.40;53.30
75738;DHT22;64356;45.638;13.764;2023-02-26T15:40:04;18.40;52.50
75738;DHT22;64356;45.638;13.764;2023-02-26T15:42:35;18.40;52.60
75738;DHT22;64356;45.638;13.764;2023-02-26T15:45:12;18.50;52.20
75738;DHT22;64356;45.638;13.764;2023-02-26T15:47:40;18.50;52.60
75738;DHT22;64356;45.638;13.764;2023-02-26T15:50:06;18.50;52.70
75738;DHT22;64356;45.638;13.764;2023-02-26T15:52:32;18.50;52.40
75738;DHT22;64356;45.638;13.764;2023-02-26T15:55:03;18.50;52.50
75738;DHT22;64356;45.638;13.764;2023-02-26T15:57:30;18.60;52.70
75738;DHT22;64356;45.638;13.764;2023-02-26T16:00:08;18.60;52.60
75738;DHT22;64356;45.638;13.764;2023-02-26T16:02:35;18.60;52.10
75738;DHT22;64356;45.638;13.764;2023-02-26T16:05:03;18.70;52.00
75738;DHT22;64356;45.638;13.764;2023-02-26T16:07:28;18.70;52.00
75738;DHT22;64356;45.638;13.764;2023-02-26T16:09:55;18.70;52.40
75738;DHT22;64356;45.638;13.764;2023-02-26T16:12:31;18.70;52.40
75738;DHT22;64356;45.638;13.764;2023-02-26T16:15:01;18.80;51.70
75738;DHT22;64356;45.638;13.764;2023-02-26T16:17:32;18.80;52.10
75738;DHT22;64356;45.638;13.764;2023-02-26T16:20:05;18.90;51.90
75738;DHT22;64356;45.638;13.764;2023-02-26T16:22:34;19.00;51.00
75738;DHT22;64356;45.638;13.764;2023-02-26T16:25:22;19.00;50.90
75738;DHT22;64356;45.638;13.764;2023-02-26T16:28:13;19.10;51.10
75738;DHT22;64356;45.638;13.764;2023-02-26T16:30:43;19.20;51.20
75738;DHT22;64356;45.638;13.764;2023-02-26T16:33:15;19.30;50.70
75738;DHT22;64356;45.638;13.764;2023-02-26T16:35:54;19.40;50.60
75738;DHT22;64356;45.638;13.764;2023-02-26T16:38:25;19.50;50.50
75738;DHT22;64356;45.638;13.764;2023-02-26T16:40:57;19.60;49.50
75738;DHT22;64356;45.638;13.764;2023-02-26T16:46:17;19.80;49.30
75738;DHT22;64356;45.638;13.764;2023-02-26T16:48:54;19.90;49.70
75738;DHT22;64356;45.638;13.764;2023-02-26T16:51:24;20.00;49.60
75738;DHT22;64356;45.638;13.764;2023-02-26T16:54:00;20.00;49.40
75738;DHT22;64356;45.638;13.764;2023-02-26T16:56:37;20.10;49.50
75738;DHT22;64356;45.638;13.764;2023-02-26T17:01:59;20.20;49.70
75738;DHT22;64356;45.638;13.764;2023-02-26T17:04:28;20.20;49.20
75738;DHT22;64356;45.638;13.764;2023-02-26T17:06:56;20.30;49.20
75738;DHT22;64356;45.638;13.764;2023-02-26T17:14:46;20.50;48.00
75738;DHT22;64356;45.638;13.764;2023-02-26T17:17:13;20.60;48.00
75738;DHT22;64356;45.638;13.764;2023-02-26T17:19:38;20.70;47.10
75738;DHT22;64356;45.638;13.764;2023-02-26T17:22:07;20.80;47.40
75738;DHT22;64356;45.638;13.764;2023-02-26T17:24:37;20.80;48.70
75738;DHT22;64356;45.638;13.764;2023-02-26T17:27:16;20.90;47.80
75738;DHT22;64356;45.638;13.764;2023-02-26T17:29:44;20.90;47.90
75738;DHT22;64356;45.638;13.764;2023-02-26T17:32:20;20.90;47.40
75738;DHT22;64356;45.638;13.764;2023-02-26T17:34:47;21.00;47.20
75738;DHT22;64356;45.638;13.764;2023-02-26T17:37:14;21.00;46.80
75738;DHT22;64356;45.638;13.764;2023-02-26T17:39:41;21.10;46.60
75738;DHT22;64356;45.638;13.764;2023-02-26T17:42:15;21.10;46.40
75738;DHT22;64356;45.638;13.764;2023-02-26T17:44:41;21.10;46.40
75738;DHT22;64356;45.638;13.764;2023-02-26T17:47:19;21.10;46.30
75738;DHT22;64356;45.638;13.764;2023-02-26T17:49:45;21.20;46.20
75738;DHT22;64356;45.638;13.764;2023-02-26T17:52:11;21.10;46.40
75738;DHT22;64356;45.638;13.764;2023-02-26T17:54:37;21.10;46.30
75738;DHT22;64356;45.638;13.764;2023-02-26T17:57:03;21.10;46.20
75738;DHT22;64356;45.638;13.764;2023-02-26T17:59:29;21.10;46.20
75738;DHT22;64356;45.638;13.764;2023-02-26T18:01:55;21.10;46.40
75738;DHT22;64356;45.638;13.764;2023-02-26T18:04:21;21.10;46.30
75738;DHT22;64356;45.638;13.764;2023-02-26T18:06:47;21.10;46.20
75738;DHT22;64356;45.638;13.764;2023-02-26T18:09:13;21.10;46.20
75738;DHT22;64356;45.638;13.764;2023-02-26T18:11:40;21.10;46.40
75738;DHT22;64356;45.638;13.764;2023-02-26T18:14:07;21.10;46.10
75738;DHT22;64356;45.638;13.764;2023-02-26T18:16:37;21.10;45.30
75738;DHT22;64356;45.638;13.764;2023-02-26T18:19:03;21.10;45.80
75738;DHT22;64356;45.638;13.764;2023-02-26T18:21:30;21.10;45.40
75738;DHT22;64356;45.638;13.764;2023-02-26T18:23:56;21.10;45.50
75738;DHT22;64356;45.638;13.764;2023-02-26T18:26:23;21.10;45.40
75738;DHT22;64356;45.638;13.764;2023-02-26T18:28:52;21.10;45.50
75738;DHT22;64356;45.638;13.764;2023-02-26T18:31:20;21.10;45.60
75738;DHT22;64356;45.638;13.764;2023-02-26T18:33:45;21.00;45.40
75738;DHT22;64356;45.638;13.764;2023-02-26T18:36:20;21.00;45.30
75738;DHT22;64356;45.638;13.764;2023-02-26T18:38:47;21.00;45.10
75738;DHT22;64356;45.638;13.764;2023-02-26T18:41:13;21.00;45.40
75738;DHT22;64356;45.638;13.764;2023-02-26T18:43:38;21.00;45.60
75738;DHT22;64356;45.638;13.764;2023-02-26T18:46:04;21.00;45.30
75738;DHT22;64356;45.638;13.764;2023-02-26T18:48:30;21.00;45.50